Time;durP1;ratioP1;P1;durP2;ratioP2;P2;SDS_P1;SDS_P2;PMS_P1;PMS_P2;Temp;Humidity;BMP_temperature;BMP_pressure;BME280_temperature;BME280_humidity;BME280_pressure;Samples;Min_cycle;Max_cycle;Signal;HPM_P1;HPM_P2
2022/08/21 00:00:48;;;;;;;;;;;20.00;96.80;;;;;;5073168;28;19947;-71
2022/08/21 00:03:14;;;;;;;;;;;20.00;96.90;;;;;;5073526;28;19920;-71
2022/08/21 00:05:44;;;;;;;;;;;20.00;97.00;;;;;;5073208;28;19962;-71
2022/08/21 00:08:10;;;;;;;;;;;20.00;97.00;;;;;;5073359;28;19916;-71
2022/08/21 00:10:36;;;;;;;;;;;20.00;97.00;;;;;;5073326;28;19916;-71
2022/08/21 00:13:03;;;;;;;;;;;20.00;97.00;;;;;;5073577;28;19915;-71
2022/08/21 00:15:30;;;;;;;;;;;20.00;97.10;;;;;;5073094;28;20270;-71
2022/08/21 00:17:56;;;;;;;;;;;20.00;97.10;;;;;;5073196;28;19968;-71
2022/08/21 00:20:23;;;;;;;;;;;20.00;97.20;;;;;;5072861;28;19966;-71
2022/08/21 00:22:49;;;;;;;;;;;20.00;97.30;;;;;;5073141;28;20560;-71
2022/08/21 00:25:15;;;;;;;;;;;19.90;97.40;;;;;;5073153;28;20309;-71
2022/08/21 00:27:42;;;;;;;;;;;19.90;97.40;;;;;;5073317;28;19970;-71
2022/08/21 00:30:09;;;;;;;;;;;19.90;97.60;;;;;;5071277;28;20270;-71
2022/08/21 00:32:36;;;;;;;;;;;19.90;97.60;;;;;;5072837;28;19959;-70
2022/08/21 00:35:03;;;;;;;;;;;19.90;97.60;;;;;;5072734;28;20373;-71
2022/08/21 00:37:29;;;;;;;;;;;19.80;97.60;;;;;;5072644;28;20377;-71
2022/08/21 00:39:54;;;;;;;;;;;19.80;97.60;;;;;;5072477;28;19938;-71
2022/08/21 00:42:20;;;;;;;;;;;19.80;97.80;;;;;;5073147;28;20396;-71
2022/08/21 00:44:48;;;;;;;;;;;19.80;97.90;;;;;;5071224;28;20400;-71
2022/08/21 00:47:15;;;;;;;;;;;19.70;98.00;;;;;;5072740;28;19919;-71
2022/08/21 00:49:41;;;;;;;;;;;19.70;98.20;;;;;;5072343;28;19919;-71
2022/08/21 00:52:09;;;;;;;;;;;19.70;98.20;;;;;;5071188;28;19913;-71
2022/08/21 00:54:36;;;;;;;;;;;19.60;98.30;;;;;;5071183;28;20007;-71
2022/08/21 00:57:08;;;;;;;;;;;19.60;98.40;;;;;;5072107;28;20381;-71
2022/08/21 00:59:36;;;;;;;;;;;19.50;98.50;;;;;;5072193;28;20369;-71
2022/08/21 01:02:02;;;;;;;;;;;19.50;98.50;;;;;;5072518;28;19935;-71
2022/08/21 01:04:28;;;;;;;;;;;19.40;98.70;;;;;;5072401;28;20445;-71
2022/08/21 01:06:54;;;;;;;;;;;19.40;98.80;;;;;;5070863;28;19943;-71
2022/08/21 01:09:20;;;;;;;;;;;19.30;98.90;;;;;;5071552;28;19916;-71
2022/08/21 01:11:47;;;;;;;;;;;19.30;99.10;;;;;;5072458;28;19962;-70
2022/08/21 01:14:14;;;;;;;;;;;19.30;99.10;;;;;;5072147;28;19919;-71
2022/08/21 01:16:41;;;;;;;;;;;19.30;99.10;;;;;;5072007;28;19912;-71
2022/08/21 01:19:08;;;;;;;;;;;19.20;99.20;;;;;;5070565;28;20023;-70
2022/08/21 01:21:34;;;;;;;;;;;19.20;99.30;;;;;;5072087;28;20358;-70
2022/08/21 01:23:59;;;;;;;;;;;19.20;99.40;;;;;;5071990;28;19983;-71
2022/08/21 01:26:27;;;;;;;;;;;19.20;99.40;;;;;;5084536;22;19924;-69
2022/08/21 01:28:56;;;;;;;;;;;19.10;99.40;;;;;;5071539;28;19912;-70
2022/08/21 01:31:23;;;;;;;;;;;19.10;99.50;;;;;;5071635;28;19970;-70
2022/08/21 01:33:49;;;;;;;;;;;19.10;99.50;;;;;;5071557;28;19919;-70
2022/08/21 01:36:14;;;;;;;;;;;19.10;99.40;;;;;;5071538;28;19999;-69
2022/08/21 01:38:40;;;;;;;;;;;19.10;99.40;;;;;;5071404;28;19921;-69
2022/08/21 01:41:06;;;;;;;;;;;19.00;99.40;;;;;;5071466;28;19917;-70
2022/08/21 01:43:32;;;;;;;;;;;18.90;99.50;;;;;;5071569;28;19923;-69
2022/08/21 01:45:58;;;;;;;;;;;18.90;99.60;;;;;;5071601;28;19909;-69
2022/08/21 01:48:24;;;;;;;;;;;18.90;99.60;;;;;;5071853;28;20269;-69
2022/08/21 01:50:49;;;;;;;;;;;18.90;99.70;;;;;;5071104;28;20292;-70
2022/08/21 01:53:15;;;;;;;;;;;18.90;99.70;;;;;;5069986;28;20395;-69
2022/08/21 01:55:42;;;;;;;;;;;18.80;99.70;;;;;;5071364;28;19916;-69
2022/08/21 01:58:08;;;;;;;;;;;18.70;99.80;;;;;;5071294;28;19971;-69
2022/08/21 02:00:33;;;;;;;;;;;18.70;99.90;;;;;;5071186;28;19945;-69
2022/08/21 02:02:59;;;;;;;;;;;18.70;99.90;;;;;;5071396;28;20284;-70
2022/08/21 02:05:25;;;;;;;;;;;18.70;99.90;;;;;;5071367;28;19912;-70
2022/08/21 02:07:52;;;;;;;;;;;18.70;99.90;;;;;;5071329;28;20269;-70
2022/08/21 02:10:20;;;;;;;;;;;18.60;99.90;;;;;;5071254;28;19916;-70
2022/08/21 02:12:46;;;;;;;;;;;18.60;99.90;;;;;;5070097;28;19912;-69
2022/08/21 02:15:12;;;;;;;;;;;18.60;99.90;;;;;;5071140;28;19963;-70
2022/08/21 02:17:58;;;;;;;;;;;18.60;99.90;;;;;;5071077;28;19920;-70
2022/08/21 02:20:31;;;;;;;;;;;18.60;99.90;;;;;;5072940;28;19923;-69
2022/08/21 02:22:57;;;;;;;;;;;18.60;99.90;;;;;;5075214;28;19912;-70
2022/08/21 02:25:24;;;;;;;;;;;18.60;99.90;;;;;;5075387;28;19912;-70
2022/08/21 02:27:50;;;;;;;;;;;18.60;99.90;;;;;;5074997;28;19916;-70
2022/08/21 02:30:21;;;;;;;;;;;18.60;99.90;;;;;;5074871;28;19999;-70
2022/08/21 02:32:47;;;;;;;;;;;18.60;99.90;;;;;;5074932;28;19912;-70
2022/08/21 02:35:13;;;;;;;;;;;18.60;99.90;;;;;;5074956;28;19973;-70
2022/08/21 02:37:49;;;;;;;;;;;18.60;99.90;;;;;;5074875;28;19964;-69
2022/08/21 02:40:17;;;;;;;;;;;18.50;99.90;;;;;;5075046;28;20008;-70
2022/08/21 02:42:45;;;;;;;;;;;18.50;99.90;;;;;;5075107;28;20286;-70
2022/08/21 02:45:11;;;;;;;;;;;18.50;99.90;;;;;;5074861;28;19912;-69
2022/08/21 02:47:38;;;;;;;;;;;18.40;99.90;;;;;;5073340;28;19917;-69
2022/08/21 02:50:04;;;;;;;;;;;18.40;99.90;;;;;;5074443;28;19917;-70
2022/08/21 02:52:30;;;;;;;;;;;18.40;99.90;;;;;;5074630;28;19912;-70
2022/08/21 02:54:55;;;;;;;;;;;18.40;99.90;;;;;;5074610;28;19912;-70
2022/08/21 02:57:21;;;;;;;;;;;18.40;99.90;;;;;;5074335;28;20431;-69
2022/08/21 02:59:47;;;;;;;;;;;18.30;99.90;;;;;;5072955;28;20436;-69
2022/08/21 03:02:12;;;;;;;;;;;18.30;99.90;;;;;;5074645;28;20332;-69
2022/08/21 03:04:38;;;;;;;;;;;18.30;99.90;;;;;;5074510;28;19916;-69
2022/08/21 03:07:04;;;;;;;;;;;18.20;99.90;;;;;;5074315;28;20280;-70
2022/08/21 03:09:30;;;;;;;;;;;18.30;99.90;;;;;;5074106;28;19913;-70
2022/08/21 03:11:55;;;;;;;;;;;18.20;99.90;;;;;;5072895;28;19958;-70
2022/08/21 03:14:21;;;;;;;;;;;18.20;99.90;;;;;;5072800;28;19916;-70
2022/08/21 03:16:47;;;;;;;;;;;18.20;99.90;;;;;;5074006;28;19913;-69
2022/08/21 03:19:13;;;;;;;;;;;18.10;99.90;;;;;;5073855;28;19962;-70
2022/08/21 03:21:38;;;;;;;;;;;18.10;99.90;;;;;;5074117;28;19912;-70
2022/08/21 03:24:06;;;;;;;;;;;18.10;99.90;;;;;;5074126;28;20356;-70
2022/08/21 03:26:32;;;;;;;;;;;18.10;99.90;;;;;;5073943;28;20400;-70
2022/08/21 03:28:58;;;;;;;;;;;18.00;99.90;;;;;;5073818;28;19981;-70
2022/08/21 03:31:26;;;;;;;;;;;18.10;99.90;;;;;;5073040;28;20288;-70
2022/08/21 03:33:54;;;;;;;;;;;18.10;99.90;;;;;;5073875;28;19916;-70
2022/08/21 03:36:20;;;;;;;;;;;18.00;99.90;;;;;;5073828;28;20185;-70
2022/08/21 03:38:46;;;;;;;;;;;18.00;99.90;;;;;;5073707;28;20280;-70
2022/08/21 03:41:12;;;;;;;;;;;18.00;99.90;;;;;;5072259;28;20383;-70
2022/08/21 03:43:38;;;;;;;;;;;18.00;99.90;;;;;;5073665;28;19912;-70
2022/08/21 03:46:04;;;;;;;;;;;18.00;99.90;;;;;;5072244;28;19919;-70
2022/08/21 03:48:30;;;;;;;;;;;18.00;99.90;;;;;;5073696;28;19918;-70
2022/08/21 03:50:56;;;;;;;;;;;17.90;99.90;;;;;;5073540;28;20295;-70
2022/08/21 03:53:25;;;;;;;;;;;17.90;99.90;;;;;;5073688;28;20003;-70
2022/08/21 03:55:52;;;;;;;;;;;17.90;99.90;;;;;;5073273;28;19913;-70
2022/08/21 03:58:19;;;;;;;;;;;18.00;99.90;;;;;;5073332;28;19916;-70
2022/08/21 04:00:46;;;;;;;;;;;18.00;99.90;;;;;;5073235;28;19912;-70
2022/08/21 04:03:12;;;;;;;;;;;18.10;99.90;;;;;;5073479;28;20023;-70
2022/08/21 04:05:38;;;;;;;;;;;18.10;99.90;;;;;;5073310;28;19966;-70
2022/08/21 04:08:05;;;;;;;;;;;18.10;99.90;;;;;;5073300;28;19913;-70
2022/08/21 04:10:32;;;;;;;;;;;18.20;99.90;;;;;;5073194;28;20254;-70
2022/08/21 04:12:58;;;;;;;;;;;18.20;99.90;;;;;;5073231;28;20284;-70
2022/08/21 04:15:24;;;;;;;;;;;18.30;99.90;;;;;;5073105;28;19912;-70
2022/08/21 04:17:50;;;;;;;;;;;18.30;99.90;;;;;;5072910;28;19923;-70
2022/08/21 04:20:17;;;;;;;;;;;18.20;99.90;;;;;;5072904;28;19920;-70
2022/08/21 04:22:44;;;;;;;;;;;18.10;99.90;;;;;;5073544;28;19934;-70
2022/08/21 04:25:10;;;;;;;;;;;18.10;99.90;;;;;;5073091;28;19919;-70
2022/08/21 04:27:36;;;;;;;;;;;18.10;99.90;;;;;;5072702;28;19975;-70
2022/08/21 04:30:03;;;;;;;;;;;18.10;99.90;;;;;;5072527;28;19920;-70
2022/08/21 04:32:29;;;;;;;;;;;18.10;99.90;;;;;;5072825;28;20262;-70
2022/08/21 04:34:59;;;;;;;;;;;18.10;99.90;;;;;;5072756;28;19919;-70
2022/08/21 04:37:25;;;;;;;;;;;18.10;99.90;;;;;;5071191;28;19924;-70
2022/08/21 04:39:51;;;;;;;;;;;18.10;99.90;;;;;;5072377;28;19912;-70
2022/08/21 04:42:17;;;;;;;;;;;18.10;99.90;;;;;;5071461;28;19939;-70
2022/08/21 04:44:43;;;;;;;;;;;18.00;99.90;;;;;;5071757;28;19966;-70
2022/08/21 04:47:08;;;;;;;;;;;18.00;99.90;;;;;;5072488;28;19913;-70
2022/08/21 04:49:34;;;;;;;;;;;18.00;99.90;;;;;;5072345;28;20285;-70
2022/08/21 04:52:01;;;;;;;;;;;18.00;99.90;;;;;;5072595;28;19973;-69
2022/08/21 04:54:27;;;;;;;;;;;17.90;99.90;;;;;;5072916;28;20434;-69
2022/08/21 04:56:54;;;;;;;;;;;17.90;99.90;;;;;;5072802;28;20007;-70
2022/08/21 04:59:22;;;;;;;;;;;17.90;99.90;;;;;;5072441;28;19961;-70
2022/08/21 05:01:48;;;;;;;;;;;17.80;99.90;;;;;;5072608;28;19912;-70
2022/08/21 05:04:16;;;;;;;;;;;17.80;99.90;;;;;;5071436;28;19920;-70
2022/08/21 05:06:43;;;;;;;;;;;17.80;99.90;;;;;;5072423;28;19962;-70
2022/08/21 05:09:12;;;;;;;;;;;17.70;99.90;;;;;;5072154;28;20365;-70
2022/08/21 05:11:38;;;;;;;;;;;17.70;99.90;;;;;;5072301;28;20327;-70
2022/08/21 05:14:03;;;;;;;;;;;17.70;99.90;;;;;;5072612;28;19913;-70
2022/08/21 05:16:29;;;;;;;;;;;17.70;99.90;;;;;;5072344;28;19912;-70
2022/08/21 05:18:55;;;;;;;;;;;17.70;99.90;;;;;;5072370;28;19923;-69
2022/08/21 05:21:21;;;;;;;;;;;17.70;99.90;;;;;;5072302;28;20356;-69
2022/08/21 05:23:46;;;;;;;;;;;17.70;99.90;;;;;;5072157;28;19916;-70
2022/08/21 05:26:12;;;;;;;;;;;17.70;99.90;;;;;;5071990;28;19925;-70
2022/08/21 05:28:38;;;;;;;;;;;17.70;99.90;;;;;;5072258;28;19999;-70
2022/08/21 05:31:04;;;;;;;;;;;17.80;99.90;;;;;;5072458;28;19913;-70
2022/08/21 05:33:29;;;;;;;;;;;17.80;99.90;;;;;;5072280;28;19935;-70
2022/08/21 05:35:55;;;;;;;;;;;17.90;99.90;;;;;;5072000;28;19986;-70
2022/08/21 05:38:21;;;;;;;;;;;17.80;99.90;;;;;;5071698;28;19916;-70
2022/08/21 05:40:47;;;;;;;;;;;17.80;99.90;;;;;;5072130;28;19919;-70
2022/08/21 05:43:14;;;;;;;;;;;17.90;99.90;;;;;;5072315;28;20284;-70
2022/08/21 05:45:40;;;;;;;;;;;18.00;99.90;;;;;;5071921;28;19912;-70
2022/08/21 05:48:09;;;;;;;;;;;18.00;99.90;;;;;;5072258;28;20356;-70
2022/08/21 05:50:37;;;;;;;;;;;18.10;99.90;;;;;;5071594;28;20031;-70
2022/08/21 05:53:03;;;;;;;;;;;18.10;99.90;;;;;;5071837;28;20041;-70
2022/08/21 05:55:29;;;;;;;;;;;18.30;99.90;;;;;;5071571;28;20316;-70
2022/08/21 05:57:54;;;;;;;;;;;18.30;99.90;;;;;;5071943;28;19916;-70
2022/08/21 06:00:22;;;;;;;;;;;18.30;99.90;;;;;;5071729;28;19963;-70
2022/08/21 06:02:49;;;;;;;;;;;18.40;99.90;;;;;;5072222;28;19920;-70
2022/08/21 06:05:15;;;;;;;;;;;18.50;99.90;;;;;;5071704;28;19913;-70
2022/08/21 06:07:41;;;;;;;;;;;18.50;99.90;;;;;;5071438;28;19966;-70
2022/08/21 06:10:07;;;;;;;;;;;18.60;99.90;;;;;;5071536;28;19919;-70
2022/08/21 06:12:33;;;;;;;;;;;18.60;99.90;;;;;;5071531;28;19966;-70
2022/08/21 06:14:58;;;;;;;;;;;18.60;99.90;;;;;;5071447;28;19951;-70
2022/08/21 06:17:24;;;;;;;;;;;18.70;99.90;;;;;;5071015;28;20288;-70
2022/08/21 06:19:53;;;;;;;;;;;18.80;99.90;;;;;;5070998;28;20381;-70
2022/08/21 06:22:19;;;;;;;;;;;18.80;99.90;;;;;;5071414;28;20276;-70
2022/08/21 06:24:45;;;;;;;;;;;18.80;99.90;;;;;;5071303;28;19931;-70
2022/08/21 06:27:11;;;;;;;;;;;18.90;99.90;;;;;;5071077;28;19916;-70
2022/08/21 06:29:37;;;;;;;;;;;18.90;99.90;;;;;;5071056;28;19965;-70
2022/08/21 06:32:03;;;;;;;;;;;19.00;99.90;;;;;;5069994;28;19956;-70
2022/08/21 06:34:29;;;;;;;;;;;19.00;99.90;;;;;;5071194;28;19912;-70
2022/08/21 06:36:55;;;;;;;;;;;19.00;99.90;;;;;;5070977;28;20003;-70
2022/08/21 06:39:21;;;;;;;;;;;19.10;99.90;;;;;;5069598;28;20533;-70
2022/08/21 06:41:47;;;;;;;;;;;19.10;99.80;;;;;;5071084;28;19920;-69
2022/08/21 06:44:15;;;;;;;;;;;19.10;99.20;;;;;;5070953;28;19944;-70
2022/08/21 06:46:41;;;;;;;;;;;19.20;99.00;;;;;;5070961;28;19912;-70
2022/08/21 06:49:07;;;;;;;;;;;19.20;98.80;;;;;;5069548;28;19913;-69
2022/08/21 06:51:33;;;;;;;;;;;19.20;98.60;;;;;;5070848;28;19912;-69
2022/08/21 06:53:58;;;;;;;;;;;19.20;98.50;;;;;;5070976;28;19913;-70
2022/08/21 06:56:24;;;;;;;;;;;19.30;98.50;;;;;;5070940;28;19991;-70
2022/08/21 06:58:50;;;;;;;;;;;19.30;98.40;;;;;;5069332;28;20447;-70
2022/08/21 07:01:16;;;;;;;;;;;19.30;98.30;;;;;;5071050;28;19997;-69
2022/08/21 07:03:42;;;;;;;;;;;19.40;98.10;;;;;;5070997;28;19916;-70
2022/08/21 07:06:09;;;;;;;;;;;19.40;98.00;;;;;;5070989;28;19950;-70
2022/08/21 07:08:36;;;;;;;;;;;19.50;97.90;;;;;;5074216;28;19985;-70
2022/08/21 07:11:03;;;;;;;;;;;19.40;97.60;;;;;;5074297;28;19923;-70
2022/08/21 07:13:29;;;;;;;;;;;19.50;97.40;;;;;;5073109;28;19912;-70
2022/08/21 07:15:55;;;;;;;;;;;19.50;97.50;;;;;;5073107;28;19912;-70
2022/08/21 07:18:21;;;;;;;;;;;19.60;97.30;;;;;;5074128;28;19916;-70
2022/08/21 07:20:47;;;;;;;;;;;19.60;97.30;;;;;;5072777;28;19912;-70
2022/08/21 07:23:33;;;;;;;;;;;19.60;97.40;;;;;;5074339;28;19913;-70
2022/08/21 07:26:00;;;;;;;;;;;19.60;97.40;;;;;;5072776;28;19920;-70
2022/08/21 07:28:26;;;;;;;;;;;19.70;97.20;;;;;;5104472;22;19924;-71
2022/08/21 07:30:54;;;;;;;;;;;19.70;97.20;;;;;;5092877;28;20319;-71
2022/08/21 07:33:20;;;;;;;;;;;19.70;97.20;;;;;;5094657;28;19916;-72
2022/08/21 07:35:45;;;;;;;;;;;19.80;96.90;;;;;;5094160;28;20395;-71
2022/08/21 07:38:11;;;;;;;;;;;19.80;96.50;;;;;;5094043;28;19971;-71
2022/08/21 07:40:37;;;;;;;;;;;19.80;96.60;;;;;;5093902;28;19919;-71
2022/08/21 07:43:03;;;;;;;;;;;19.80;96.30;;;;;;5094650;28;19912;-71
2022/08/21 07:45:29;;;;;;;;;;;19.90;96.20;;;;;;5092749;28;19912;-71
2022/08/21 07:47:55;;;;;;;;;;;19.80;96.00;;;;;;5093958;28;19919;-70
2022/08/21 07:50:20;;;;;;;;;;;19.90;96.30;;;;;;5093978;28;19916;-71
2022/08/21 07:52:47;;;;;;;;;;;19.90;96.30;;;;;;5094183;28;19912;-71
2022/08/21 07:55:14;;;;;;;;;;;19.90;96.40;;;;;;5094133;28;19912;-71
2022/08/21 07:57:40;;;;;;;;;;;19.90;96.70;;;;;;5092835;28;20320;-72
2022/08/21 08:00:08;;;;;;;;;;;19.90;97.00;;;;;;5093544;28;20014;-71
2022/08/21 08:02:38;;;;;;;;;;;19.90;96.90;;;;;;5092902;28;19916;-71
2022/08/21 08:05:04;;;;;;;;;;;19.90;97.00;;;;;;5092535;28;19912;-71
2022/08/21 08:07:30;;;;;;;;;;;20.00;96.10;;;;;;5092513;28;20330;-71
2022/08/21 08:09:56;;;;;;;;;;;20.00;95.20;;;;;;5093485;28;19912;-71
2022/08/21 08:12:22;;;;;;;;;;;20.10;95.10;;;;;;5093627;28;19941;-71
2022/08/21 08:14:47;;;;;;;;;;;20.00;95.00;;;;;;5093993;28;20392;-71
2022/08/21 08:17:13;;;;;;;;;;;20.10;95.20;;;;;;5093077;28;19912;-71
2022/08/21 08:19:39;;;;;;;;;;;20.10;94.60;;;;;;5093538;28;19970;-72
2022/08/21 08:22:15;;;;;;;;;;;20.20;94.70;;;;;;5093604;28;20449;-71
2022/08/21 08:24:41;;;;;;;;;;;20.20;94.50;;;;;;5093389;28;20289;-70
2022/08/21 08:27:07;;;;;;;;;;;20.20;94.40;;;;;;5093136;28;19923;-70
2022/08/21 08:29:32;;;;;;;;;;;20.20;94.20;;;;;;5093070;28;19920;-70
2022/08/21 08:31:59;;;;;;;;;;;20.20;94.30;;;;;;5093325;28;20007;-71
2022/08/21 08:34:24;;;;;;;;;;;20.30;94.30;;;;;;5091968;28;20002;-71
2022/08/21 08:36:50;;;;;;;;;;;20.30;94.40;;;;;;5093036;28;20386;-71
2022/08/21 08:39:16;;;;;;;;;;;20.30;94.50;;;;;;5091684;28;19963;-70
2022/08/21 08:41:43;;;;;;;;;;;20.30;94.30;;;;;;5093173;28;20019;-71
2022/08/21 08:44:08;;;;;;;;;;;20.40;94.30;;;;;;5092914;28;20066;-71
2022/08/21 08:46:35;;;;;;;;;;;20.40;94.20;;;;;;5092809;28;19923;-71
2022/08/21 08:49:20;;;;;;;;;;;20.50;93.90;;;;;;5091694;28;19916;-71
2022/08/21 08:51:46;;;;;;;;;;;20.50;93.60;;;;;;5092949;28;19958;-72
2022/08/21 08:54:15;;;;;;;;;;;20.60;93.30;;;;;;5092965;28;20341;-72
2022/08/21 08:56:41;;;;;;;;;;;20.60;93.50;;;;;;5092745;28;19951;-72
2022/08/21 08:59:15;;;;;;;;;;;20.70;93.30;;;;;;5092804;28;19916;-72
2022/08/21 09:01:41;;;;;;;;;;;20.70;93.20;;;;;;5092638;28;19912;-72
2022/08/21 09:04:11;;;;;;;;;;;20.60;93.40;;;;;;5092498;28;19912;-72
2022/08/21 09:06:47;;;;;;;;;;;20.60;93.40;;;;;;5091144;28;19913;-72
2022/08/21 09:09:19;;;;;;;;;;;20.60;93.50;;;;;;5092491;28;19919;-71
2022/08/21 09:11:52;;;;;;;;;;;20.60;93.70;;;;;;5091337;28;19912;-72
2022/08/21 09:14:21;;;;;;;;;;;20.60;93.70;;;;;;5092470;28;20014;-72
2022/08/21 09:17:04;;;;;;;;;;;20.60;93.80;;;;;;5091112;28;19954;-71
2022/08/21 09:19:59;;;;;;;;;;;20.70;93.80;;;;;;5091951;28;20449;-71
2022/08/21 09:22:27;;;;;;;;;;;20.70;93.60;;;;;;5072248;28;19919;-70
2022/08/21 09:24:59;;;;;;;;;;;20.70;93.50;;;;;;5091051;28;19913;-71
2022/08/21 09:27:25;;;;;;;;;;;20.80;93.40;;;;;;5090627;28;19916;-71
2022/08/21 09:29:54;;;;;;;;;;;20.80;93.80;;;;;;5091311;28;19916;-72
2022/08/21 09:32:21;;;;;;;;;;;20.80;93.50;;;;;;5092378;28;20317;-71
2022/08/21 09:35:01;;;;;;;;;;;20.90;93.30;;;;;;5092240;28;20017;-71
2022/08/21 09:37:28;;;;;;;;;;;20.90;93.30;;;;;;5091828;28;19913;-71
2022/08/21 09:39:55;;;;;;;;;;;20.90;93.50;;;;;;5091743;28;19990;-71
2022/08/21 09:42:25;;;;;;;;;;;20.90;92.80;;;;;;5092169;28;20215;-71
2022/08/21 09:45:04;;;;;;;;;;;20.90;92.80;;;;;;5091840;28;20364;-71
2022/08/21 09:47:30;;;;;;;;;;;21.00;92.70;;;;;;5090620;28;19934;-71
2022/08/21 09:50:06;;;;;;;;;;;21.10;92.70;;;;;;5091029;28;20225;-70
2022/08/21 09:52:32;;;;;;;;;;;21.10;92.20;;;;;;5091659;28;19916;-71
2022/08/21 09:54:58;;;;;;;;;;;21.20;91.70;;;;;;5090463;28;20322;-70
2022/08/21 09:57:38;;;;;;;;;;;21.30;91.70;;;;;;5091606;28;19954;-71
2022/08/21 10:00:29;;;;;;;;;;;21.30;91.70;;;;;;5090276;28;19912;-70
2022/08/21 10:03:07;;;;;;;;;;;21.30;91.70;;;;;;5088609;28;20054;-70
2022/08/21 10:05:33;;;;;;;;;;;21.40;91.60;;;;;;5090424;28;19912;-70
2022/08/21 10:08:00;;;;;;;;;;;21.40;91.70;;;;;;5091600;28;19912;-71
2022/08/21 10:10:28;;;;;;;;;;;21.40;91.50;;;;;;5091172;28;19912;-71
2022/08/21 10:13:13;;;;;;;;;;;21.40;91.70;;;;;;5090399;28;19919;-70
2022/08/21 10:15:48;;;;;;;;;;;21.50;91.50;;;;;;5091461;28;19956;-70
2022/08/21 10:18:25;;;;;;;;;;;21.40;91.30;;;;;;5091503;28;19915;-71
2022/08/21 10:21:17;;;;;;;;;;;21.50;91.50;;;;;;5090125;28;19928;-70
2022/08/21 10:23:49;;;;;;;;;;;21.50;91.10;;;;;;5090116;28;19966;-71
2022/08/21 10:26:21;;;;;;;;;;;21.60;91.20;;;;;;5091398;28;19918;-71
2022/08/21 10:29:13;;;;;;;;;;;21.60;91.50;;;;;;5091271;28;19946;-71
2022/08/21 10:32:00;;;;;;;;;;;21.70;90.90;;;;;;5090068;28;19912;-71
2022/08/21 10:34:32;;;;;;;;;;;21.70;90.70;;;;;;5090160;28;20023;-70
2022/08/21 10:37:05;;;;;;;;;;;21.80;90.20;;;;;;5091446;28;20342;-71
2022/08/21 10:39:41;;;;;;;;;;;21.80;90.30;;;;;;5091076;28;19916;-71
2022/08/21 10:42:10;;;;;;;;;;;21.80;90.50;;;;;;5094655;28;19940;-70
2022/08/21 10:44:38;;;;;;;;;;;21.90;90.40;;;;;;5095396;28;20014;-71
2022/08/21 10:47:08;;;;;;;;;;;21.90;90.40;;;;;;5095050;28;20334;-71
2022/08/21 10:49:48;;;;;;;;;;;22.00;89.20;;;;;;5094986;28;19912;-70
2022/08/21 10:52:17;;;;;;;;;;;22.00;89.10;;;;;;5095123;28;19912;-70
2022/08/21 10:54:49;;;;;;;;;;;22.10;90.00;;;;;;5095053;28;20352;-70
2022/08/21 10:57:18;;;;;;;;;;;22.10;90.20;;;;;;5095061;28;20002;-71
2022/08/21 10:59:49;;;;;;;;;;;22.10;90.20;;;;;;5094740;28;20387;-71
2022/08/21 11:02:18;;;;;;;;;;;22.10;90.10;;;;;;5094917;28;19918;-71
2022/08/21 11:04:50;;;;;;;;;;;22.20;90.00;;;;;;5093521;28;19912;-70
2022/08/21 11:07:15;;;;;;;;;;;22.20;89.80;;;;;;5094799;28;19943;-71
2022/08/21 11:09:43;;;;;;;;;;;22.20;89.90;;;;;;5094423;28;19966;-71
2022/08/21 11:12:19;;;;;;;;;;;22.20;89.70;;;;;;5095061;28;19977;-72
2022/08/21 11:15:05;;;;;;;;;;;22.20;89.20;;;;;;5094569;28;19922;-71
2022/08/21 11:17:37;;;;;;;;;;;22.20;88.40;;;;;;5090440;28;19912;-71
2022/08/21 11:20:09;;;;;;;;;;;22.20;87.90;;;;;;5094873;28;19919;-72
2022/08/21 11:22:56;;;;;;;;;;;22.20;87.50;;;;;;5094580;28;19916;-72
2022/08/21 11:25:28;;;;;;;;;;;22.30;87.50;;;;;;5094968;28;19958;-72
2022/08/21 11:28:17;;;;;;;;;;;22.40;87.20;;;;;;5094187;28;20360;-71
2022/08/21 11:30:57;;;;;;;;;;;22.30;87.30;;;;;;5090996;28;19913;-72
2022/08/21 11:33:35;;;;;;;;;;;22.30;88.00;;;;;;5094648;28;19957;-70
2022/08/21 11:36:30;;;;;;;;;;;22.40;88.10;;;;;;5094256;28;20288;-70
2022/08/21 11:39:15;;;;;;;;;;;22.40;87.30;;;;;;5074012;28;19922;-71
2022/08/21 11:41:43;;;;;;;;;;;22.50;87.20;;;;;;5094430;28;19913;-71
2022/08/21 11:44:18;;;;;;;;;;;22.50;86.40;;;;;;5094888;28;20268;-70
2022/08/21 11:46:59;;;;;;;;;;;22.50;86.50;;;;;;5093993;28;20200;-70
2022/08/21 11:49:34;;;;;;;;;;;22.60;86.40;;;;;;5093893;28;19952;-71
2022/08/21 11:51:59;;;;;;;;;;;22.60;86.30;;;;;;5092412;28;19923;-71
2022/08/21 11:54:31;;;;;;;;;;;22.60;86.40;;;;;;5093657;28;19912;-70
2022/08/21 11:57:06;;;;;;;;;;;22.70;86.80;;;;;;5093887;28;19912;-71
2022/08/21 11:59:35;;;;;;;;;;;22.70;86.60;;;;;;5093408;28;20380;-71
2022/08/21 12:02:01;;;;;;;;;;;22.80;86.20;;;;;;5093942;28;20296;-71
2022/08/21 12:04:28;;;;;;;;;;;22.80;85.70;;;;;;5093828;28;19913;-71
2022/08/21 12:06:55;;;;;;;;;;;22.80;85.60;;;;;;5093630;28;20291;-71
2022/08/21 12:09:23;;;;;;;;;;;22.80;85.60;;;;;;5093878;28;19965;-70
2022/08/21 12:11:51;;;;;;;;;;;22.90;85.70;;;;;;5093640;28;20372;-71
2022/08/21 12:14:18;;;;;;;;;;;23.00;84.50;;;;;;5093884;28;19935;-70
2022/08/21 12:16:48;;;;;;;;;;;23.10;84.30;;;;;;5093733;28;20269;-70
2022/08/21 12:19:20;;;;;;;;;;;23.00;83.80;;;;;;5093445;28;19923;-71
2022/08/21 12:22:00;;;;;;;;;;;23.10;84.80;;;;;;5093291;28;20007;-71
2022/08/21 12:24:38;;;;;;;;;;;23.00;84.30;;;;;;5093276;28;20391;-71
2022/08/21 12:27:25;;;;;;;;;;;23.00;84.20;;;;;;5093121;28;20066;-72
2022/08/21 12:29:53;;;;;;;;;;;23.00;84.30;;;;;;5092969;28;19944;-71
2022/08/21 12:32:27;;;;;;;;;;;23.00;83.70;;;;;;5092978;28;19913;-71
2022/08/21 12:34:53;;;;;;;;;;;23.00;83.40;;;;;;5075143;28;19919;-71
2022/08/21 12:37:27;;;;;;;;;;;23.00;82.20;;;;;;5092744;28;19916;-71
2022/08/21 12:39:54;;;;;;;;;;;23.00;81.50;;;;;;5092715;28;19919;-70
2022/08/21 12:42:22;;;;;;;;;;;23.00;81.30;;;;;;5093257;28;20004;-71
2022/08/21 12:45:03;;;;;;;;;;;23.00;83.10;;;;;;5074834;28;19916;-70
2022/08/21 12:47:47;;;;;;;;;;;23.10;84.20;;;;;;5092828;28;19912;-70
2022/08/21 12:50:17;;;;;;;;;;;23.10;82.30;;;;;;5093026;28;20089;-70
2022/08/21 12:52:51;;;;;;;;;;;23.20;81.80;;;;;;5093000;28;20007;-71
2022/08/21 12:55:25;;;;;;;;;;;23.20;81.70;;;;;;5092881;28;19939;-70
2022/08/21 12:57:51;;;;;;;;;;;23.20;82.10;;;;;;5092353;28;19920;-70
2022/08/21 13:00:20;;;;;;;;;;;23.20;81.80;;;;;;5092492;28;19957;-70
2022/08/21 13:02:47;;;;;;;;;;;23.20;82.40;;;;;;5092721;28;19999;-72
2022/08/21 13:05:15;;;;;;;;;;;23.20;82.50;;;;;;5091565;28;19912;-72
2022/08/21 13:07:46;;;;;;;;;;;23.20;82.50;;;;;;5092838;28;20003;-71
2022/08/21 13:10:26;;;;;;;;;;;23.20;83.00;;;;;;5091183;28;19916;-72
2022/08/21 13:12:55;;;;;;;;;;;23.20;82.90;;;;;;5092758;28;19924;-70
2022/08/21 13:15:40;;;;;;;;;;;23.20;81.10;;;;;;5092576;28;19912;-71
2022/08/21 13:18:06;;;;;;;;;;;23.30;80.40;;;;;;5092509;28;20269;-72
2022/08/21 13:20:34;;;;;;;;;;;23.30;80.30;;;;;;5092077;28;19920;-71
2022/08/21 13:23:06;;;;;;;;;;;23.30;81.10;;;;;;5092126;28;19912;-71
2022/08/21 13:25:35;;;;;;;;;;;23.40;81.20;;;;;;5092275;28;19916;-71
2022/08/21 13:28:05;;;;;;;;;;;23.40;81.60;;;;;;5096217;22;20017;-70
2022/08/21 13:30:31;;;;;;;;;;;23.50;81.40;;;;;;5071760;28;20061;-70
2022/08/21 13:32:59;;;;;;;;;;;23.50;81.60;;;;;;5071759;28;19912;-70
2022/08/21 13:35:30;;;;;;;;;;;23.60;81.70;;;;;;5071874;28;19920;-70
2022/08/21 13:37:56;;;;;;;;;;;23.70;80.30;;;;;;5053597;28;19966;-70
2022/08/21 13:40:27;;;;;;;;;;;23.80;79.90;;;;;;5071627;28;19958;-69
2022/08/21 13:42:53;;;;;;;;;;;23.80;78.90;;;;;;5071593;28;20372;-70
2022/08/21 13:45:27;;;;;;;;;;;23.80;78.70;;;;;;5071679;28;19921;-70
2022/08/21 13:47:53;;;;;;;;;;;23.70;78.90;;;;;;5070690;28;20277;-70
2022/08/21 13:50:20;;;;;;;;;;;23.80;78.10;;;;;;5071341;28;20739;-70
2022/08/21 13:52:47;;;;;;;;;;;23.80;78.40;;;;;;5071579;28;19912;-70
2022/08/21 13:55:16;;;;;;;;;;;23.80;79.80;;;;;;5070266;28;19913;-69
2022/08/21 13:57:42;;;;;;;;;;;23.90;80.30;;;;;;5071281;28;19916;-70
2022/08/21 14:00:18;;;;;;;;;;;23.90;80.00;;;;;;5071241;28;20288;-70
2022/08/21 14:02:49;;;;;;;;;;;23.90;80.20;;;;;;5071446;28;20347;-70
2022/08/21 14:05:17;;;;;;;;;;;23.90;79.00;;;;;;5071634;28;20250;-70
2022/08/21 14:07:43;;;;;;;;;;;23.90;78.50;;;;;;5071402;28;19912;-70
2022/08/21 14:10:17;;;;;;;;;;;23.90;78.00;;;;;;5071036;28;20334;-71
2022/08/21 14:12:48;;;;;;;;;;;24.00;78.00;;;;;;5071394;28;19920;-70
2022/08/21 14:15:16;;;;;;;;;;;23.90;78.80;;;;;;5071795;28;19916;-70
2022/08/21 14:17:42;;;;;;;;;;;23.90;76.10;;;;;;5075355;28;19976;-69
2022/08/21 14:20:26;;;;;;;;;;;23.90;76.10;;;;;;5074960;28;19913;-70
2022/08/21 14:22:52;;;;;;;;;;;23.90;76.90;;;;;;5075289;28;19919;-70
2022/08/21 14:25:24;;;;;;;;;;;23.90;77.80;;;;;;5075274;28;19916;-70